sensor_id;sensor_type;location;lat;lon;timestamp;temperature;humidity
10384;DHT22;5238;43.508;4.980;2022-12-18T00:02:08;5.70;91.30
10384;DHT22;5238;43.508;4.980;2022-12-18T00:04:35;5.80;91.30
10384;DHT22;5238;43.508;4.980;2022-12-18T00:07:02;5.80;91.30
10384;DHT22;5238;43.508;4.980;2022-12-18T00:09:29;5.90;91.30
10384;DHT22;5238;43.508;4.980;2022-12-18T00:11:56;5.90;91.30
10384;DHT22;5238;43.508;4.980;2022-12-18T00:14:23;5.90;91.30
10384;DHT22;5238;43.508;4.980;2022-12-18T00:16:50;6.00;91.30
10384;DHT22;5238;43.508;4.980;2022-12-18T00:19:19;6.00;91.30
10384;DHT22;5238;43.508;4.980;2022-12-18T00:21:46;6.00;91.30
10384;DHT22;5238;43.508;4.980;2022-12-18T00:24:13;6.00;91.30
10384;DHT22;5238;43.508;4.980;2022-12-18T00:26:40;6.00;91.30
10384;DHT22;5238;43.508;4.980;2022-12-18T00:29:11;5.90;91.30
10384;DHT22;5238;43.508;4.980;2022-12-18T00:31:40;5.90;91.30
10384;DHT22;5238;43.508;4.980;2022-12-18T00:34:10;5.90;91.30
10384;DHT22;5238;43.508;4.980;2022-12-18T00:36:41;5.90;91.30
10384;DHT22;5238;43.508;4.980;2022-12-18T00:39:10;5.80;91.30
10384;DHT22;5238;43.508;4.980;2022-12-18T00:41:37;5.80;91.30
10384;DHT22;5238;43.508;4.980;2022-12-18T00:44:21;5.70;91.30
10384;DHT22;5238;43.508;4.980;2022-12-18T00:46:48;5.70;91.30
10384;DHT22;5238;43.508;4.980;2022-12-18T00:49:17;5.60;91.30
10384;DHT22;5238;43.508;4.980;2022-12-18T00:51:46;5.60;91.30
10384;DHT22;5238;43.508;4.980;2022-12-18T00:54:13;5.50;91.30
10384;DHT22;5238;43.508;4.980;2022-12-18T00:56:40;5.50;91.30
10384;DHT22;5238;43.508;4.980;2022-12-18T00:59:08;5.50;91.30
10384;DHT22;5238;43.508;4.980;2022-12-18T01:01:35;5.50;91.30
10384;DHT22;5238;43.508;4.980;2022-12-18T01:04:03;5.40;91.30
10384;DHT22;5238;43.508;4.980;2022-12-18T01:06:30;5.40;91.30
10384;DHT22;5238;43.508;4.980;2022-12-18T01:08:58;5.40;91.30
10384;DHT22;5238;43.508;4.980;2022-12-18T01:11:26;5.40;91.30
10384;DHT22;5238;43.508;4.980;2022-12-18T01:13:54;5.40;91.30
10384;DHT22;5238;43.508;4.980;2022-12-18T01:16:21;5.40;91.30
10384;DHT22;5238;43.508;4.980;2022-12-18T01:18:51;5.30;91.30
10384;DHT22;5238;43.508;4.980;2022-12-18T01:21:20;5.30;91.30
10384;DHT22;5238;43.508;4.980;2022-12-18T01:23:51;5.30;91.30
10384;DHT22;5238;43.508;4.980;2022-12-18T01:26:19;5.30;91.30
10384;DHT22;5238;43.508;4.980;2022-12-18T01:28:47;5.30;91.30
10384;DHT22;5238;43.508;4.980;2022-12-18T01:31:17;5.30;91.30
10384;DHT22;5238;43.508;4.980;2022-12-18T01:33:44;5.20;91.30
10384;DHT22;5238;43.508;4.980;2022-12-18T01:36:16;5.20;91.30
10384;DHT22;5238;43.508;4.980;2022-12-18T01:38:44;5.30;91.30
10384;DHT22;5238;43.508;4.980;2022-12-18T01:41:12;5.30;91.30
10384;DHT22;5238;43.508;4.980;2022-12-18T01:43:58;5.30;91.30
10384;DHT22;5238;43.508;4.980;2022-12-18T01:46:27;5.30;91.30
10384;DHT22;5238;43.508;4.980;2022-12-18T01:48:56;5.30;91.30
10384;DHT22;5238;43.508;4.980;2022-12-18T01:51:25;5.30;91.30
10384;DHT22;5238;43.508;4.980;2022-12-18T01:53:53;5.30;91.30
10384;DHT22;5238;43.508;4.980;2022-12-18T01:56:21;5.30;91.30
10384;DHT22;5238;43.508;4.980;2022-12-18T01:58:53;5.30;91.30
10384;DHT22;5238;43.508;4.980;2022-12-18T02:01:23;5.30;91.30
10384;DHT22;5238;43.508;4.980;2022-12-18T02:03:51;5.30;91.30
10384;DHT22;5238;43.508;4.980;2022-12-18T02:06:22;5.30;91.30
10384;DHT22;5238;43.508;4.980;2022-12-18T02:09:01;5.30;91.30
10384;DHT22;5238;43.508;4.980;2022-12-18T02:11:37;5.40;91.30
10384;DHT22;5238;43.508;4.980;2022-12-18T02:14:17;5.40;91.30
10384;DHT22;5238;43.508;4.980;2022-12-18T02:16:52;5.40;91.30
10384;DHT22;5238;43.508;4.980;2022-12-18T02:19:36;5.40;91.30
10384;DHT22;5238;43.508;4.980;2022-12-18T02:22:16;5.40;91.30
10384;DHT22;5238;43.508;4.980;2022-12-18T02:24:54;5.40;91.30
10384;DHT22;5238;43.508;4.980;2022-12-18T02:27:26;5.50;91.30
10384;DHT22;5238;43.508;4.980;2022-12-18T02:29:55;5.50;91.30
10384;DHT22;5238;43.508;4.980;2022-12-18T02:32:27;5.50;91.30
10384;DHT22;5238;43.508;4.980;2022-12-18T02:34:56;5.50;91.30
10384;DHT22;5238;43.508;4.980;2022-12-18T02:37:25;5.50;91.30
10384;DHT22;5238;43.508;4.980;2022-12-18T02:39:55;5.50;91.30
10384;DHT22;5238;43.508;4.980;2022-12-18T02:42:25;5.50;91.30
10384;DHT22;5238;43.508;4.980;2022-12-18T02:44:55;5.50;91.30
10384;DHT22;5238;43.508;4.980;2022-12-18T02:47:24;5.50;91.30
10384;DHT22;5238;43.508;4.980;2022-12-18T02:50:02;5.50;91.30
10384;DHT22;5238;43.508;4.980;2022-12-18T02:52:34;5.50;91.30
10384;DHT22;5238;43.508;4.980;2022-12-18T02:55:16;5.50;91.30
10384;DHT22;5238;43.508;4.980;2022-12-18T02:57:55;5.60;91.30
10384;DHT22;5238;43.508;4.980;2022-12-18T03:00:25;5.60;91.30
10384;DHT22;5238;43.508;4.980;2022-12-18T03:02:58;5.60;91.30
10384;DHT22;5238;43.508;4.980;2022-12-18T03:05:31;5.60;91.30
10384;DHT22;5238;43.508;4.980;2022-12-18T03:08:03;5.60;91.30
10384;DHT22;5238;43.508;4.980;2022-12-18T03:10:36;5.60;91.30
10384;DHT22;5238;43.508;4.980;2022-12-18T03:13:09;5.60;91.30
10384;DHT22;5238;43.508;4.980;2022-12-18T03:15:41;5.50;91.30
10384;DHT22;5238;43.508;4.980;2022-12-18T03:18:13;5.50;91.30
10384;DHT22;5238;43.508;4.980;2022-12-18T03:20:43;5.50;91.30
10384;DHT22;5238;43.508;4.980;2022-12-18T03:23:14;5.50;91.30
10384;DHT22;5238;43.508;4.980;2022-12-18T03:25:44;5.50;91.30
10384;DHT22;5238;43.508;4.980;2022-12-18T03:28:16;5.50;91.30
10384;DHT22;5238;43.508;4.980;2022-12-18T03:30:49;5.50;91.30
10384;DHT22;5238;43.508;4.980;2022-12-18T03:33:19;5.50;91.30
10384;DHT22;5238;43.508;4.980;2022-12-18T03:35:49;5.40;91.30
10384;DHT22;5238;43.508;4.980;2022-12-18T03:38:16;5.40;91.30
10384;DHT22;5238;43.508;4.980;2022-12-18T03:40:52;5.40;91.30
10384;DHT22;5238;43.508;4.980;2022-12-18T03:43:32;5.30;91.30
10384;DHT22;5238;43.508;4.980;2022-12-18T03:46:07;5.30;91.30
10384;DHT22;5238;43.508;4.980;2022-12-18T03:48:40;5.20;91.30
10384;DHT22;5238;43.508;4.980;2022-12-18T03:51:14;5.20;91.30
10384;DHT22;5238;43.508;4.980;2022-12-18T03:53:49;5.10;91.30
10384;DHT22;5238;43.508;4.980;2022-12-18T03:56:18;5.10;91.30
10384;DHT22;5238;43.508;4.980;2022-12-18T03:58:48;5.10;91.30
10384;DHT22;5238;43.508;4.980;2022-12-18T04:01:28;5.00;91.30
10384;DHT22;5238;43.508;4.980;2022-12-18T04:03:59;5.00;91.30
10384;DHT22;5238;43.508;4.980;2022-12-18T04:06:27;5.00;91.30
10384;DHT22;5238;43.508;4.980;2022-12-18T04:08:56;5.00;91.30
10384;DHT22;5238;43.508;4.980;2022-12-18T04:11:24;5.00;91.30
10384;DHT22;5238;43.508;4.980;2022-12-18T04:13:55;5.00;91.30
10384;DHT22;5238;43.508;4.980;2022-12-18T04:16:23;5.00;91.30
10384;DHT22;5238;43.508;4.980;2022-12-18T04:18:50;5.00;91.30
10384;DHT22;5238;43.508;4.980;2022-12-18T04:21:19;5.00;91.30
10384;DHT22;5238;43.508;4.980;2022-12-18T04:23:46;5.10;91.30
10384;DHT22;5238;43.508;4.980;2022-12-18T04:26:13;5.10;91.30
10384;DHT22;5238;43.508;4.980;2022-12-18T04:28:40;5.10;91.30
10384;DHT22;5238;43.508;4.980;2022-12-18T04:31:08;5.20;91.30
10384;DHT22;5238;43.508;4.980;2022-12-18T04:33:36;5.30;91.30
10384;DHT22;5238;43.508;4.980;2022-12-18T04:36:04;5.30;91.30
10384;DHT22;5238;43.508;4.980;2022-12-18T04:38:32;5.40;91.30
10384;DHT22;5238;43.508;4.980;2022-12-18T04:40:59;5.50;91.30
10384;DHT22;5238;43.508;4.980;2022-12-18T04:43:26;5.50;91.30
10384;DHT22;5238;43.508;4.980;2022-12-18T04:45:53;5.60;91.30
10384;DHT22;5238;43.508;4.980;2022-12-18T04:48:30;5.70;91.30
10384;DHT22;5238;43.508;4.980;2022-12-18T04:50:57;5.80;91.30
10384;DHT22;5238;43.508;4.980;2022-12-18T04:53:24;5.90;91.30
10384;DHT22;5238;43.508;4.980;2022-12-18T04:56:02;5.90;91.30
10384;DHT22;5238;43.508;4.980;2022-12-18T04:58:29;6.00;91.30
10384;DHT22;5238;43.508;4.980;2022-12-18T05:00:56;6.00;91.30
10384;DHT22;5238;43.508;4.980;2022-12-18T05:03:24;6.10;91.30
10384;DHT22;5238;43.508;4.980;2022-12-18T05:05:52;6.10;91.30
10384;DHT22;5238;43.508;4.980;2022-12-18T05:08:20;6.20;91.30
10384;DHT22;5238;43.508;4.980;2022-12-18T05:10:47;6.20;91.30
10384;DHT22;5238;43.508;4.980;2022-12-18T05:13:14;6.30;91.30
10384;DHT22;5238;43.508;4.980;2022-12-18T05:15:41;6.30;91.30
10384;DHT22;5238;43.508;4.980;2022-12-18T05:18:09;6.30;91.30
10384;DHT22;5238;43.508;4.980;2022-12-18T05:20:36;6.30;91.30
10384;DHT22;5238;43.508;4.980;2022-12-18T05:23:04;6.30;91.30
10384;DHT22;5238;43.508;4.980;2022-12-18T05:25:31;6.30;91.30
10384;DHT22;5238;43.508;4.980;2022-12-18T05:27:58;6.40;91.30
10384;DHT22;5238;43.508;4.980;2022-12-18T05:30:25;6.40;91.30
10384;DHT22;5238;43.508;4.980;2022-12-18T05:32:53;6.40;91.30
10384;DHT22;5238;43.508;4.980;2022-12-18T05:35:21;6.40;91.30
10384;DHT22;5238;43.508;4.980;2022-12-18T05:37:48;6.40;91.30
10384;DHT22;5238;43.508;4.980;2022-12-18T05:40:18;6.40;91.30
10384;DHT22;5238;43.508;4.980;2022-12-18T05:42:45;6.40;91.30
10384;DHT22;5238;43.508;4.980;2022-12-18T05:45:12;6.40;91.30
10384;DHT22;5238;43.508;4.980;2022-12-18T05:47:39;6.40;91.30
10384;DHT22;5238;43.508;4.980;2022-12-18T05:50:07;6.40;91.30
10384;DHT22;5238;43.508;4.980;2022-12-18T05:52:34;6.50;91.30
10384;DHT22;5238;43.508;4.980;2022-12-18T05:55:02;6.50;91.30
10384;DHT22;5238;43.508;4.980;2022-12-18T05:57:31;6.50;91.30
10384;DHT22;5238;43.508;4.980;2022-12-18T05:59:58;6.50;91.30
10384;DHT22;5238;43.508;4.980;2022-12-18T06:02:25;6.50;91.30
10384;DHT22;5238;43.508;4.980;2022-12-18T06:04:53;6.50;91.30
10384;DHT22;5238;43.508;4.980;2022-12-18T06:07:20;6.60;91.30
10384;DHT22;5238;43.508;4.980;2022-12-18T06:09:49;6.60;91.30
10384;DHT22;5238;43.508;4.980;2022-12-18T06:12:17;6.60;91.30
10384;DHT22;5238;43.508;4.980;2022-12-18T06:14:45;6.60;91.30
10384;DHT22;5238;43.508;4.980;2022-12-18T06:17:13;6.60;91.30
10384;DHT22;5238;43.508;4.980;2022-12-18T06:19:40;6.60;91.30
10384;DHT22;5238;43.508;4.980;2022-12-18T06:22:07;6.60;91.30
10384;DHT22;5238;43.508;4.980;2022-12-18T06:24:36;6.60;91.30
10384;DHT22;5238;43.508;4.980;2022-12-18T06:27:03;6.60;91.30
10384;DHT22;5238;43.508;4.980;2022-12-18T06:29:30;6.60;91.30
10384;DHT22;5238;43.508;4.980;2022-12-18T06:31:59;6.60;91.30
10384;DHT22;5238;43.508;4.980;2022-12-18T06:34:26;6.60;91.30
10384;DHT22;5238;43.508;4.980;2022-12-18T06:37:02;6.60;91.30
10384;DHT22;5238;43.508;4.980;2022-12-18T06:39:29;6.60;91.30
10384;DHT22;5238;43.508;4.980;2022-12-18T06:41:56;6.60;91.30
10384;DHT22;5238;43.508;4.980;2022-12-18T06:44:23;6.60;91.30
10384;DHT22;5238;43.508;4.980;2022-12-18T06:46:50;6.60;91.30
10384;DHT22;5238;43.508;4.980;2022-12-18T06:49:19;6.60;91.30
10384;DHT22;5238;43.508;4.980;2022-12-18T06:51:47;6.60;91.30
10384;DHT22;5238;43.508;4.980;2022-12-18T06:54:14;6.60;91.30
10384;DHT22;5238;43.508;4.980;2022-12-18T06:56:41;6.60;91.30
10384;DHT22;5238;43.508;4.980;2022-12-18T06:59:08;6.60;91.30
10384;DHT22;5238;43.508;4.980;2022-12-18T07:01:35;6.70;91.30
10384;DHT22;5238;43.508;4.980;2022-12-18T07:04:02;6.70;91.30
10384;DHT22;5238;43.508;4.980;2022-12-18T07:06:30;6.70;91.30
10384;DHT22;5238;43.508;4.980;2022-12-18T07:08:57;6.80;91.30
10384;DHT22;5238;43.508;4.980;2022-12-18T07:11:25;6.80;91.30
10384;DHT22;5238;43.508;4.980;2022-12-18T07:13:52;6.80;91.30
10384;DHT22;5238;43.508;4.980;2022-12-18T07:16:20;6.80;91.30
10384;DHT22;5238;43.508;4.980;2022-12-18T07:18:47;6.80;91.30
10384;DHT22;5238;43.508;4.980;2022-12-18T07:21:16;6.90;91.30
10384;DHT22;5238;43.508;4.980;2022-12-18T07:23:44;6.90;91.30
10384;DHT22;5238;43.508;4.980;2022-12-18T07:26:15;6.90;91.30
10384;DHT22;5238;43.508;4.980;2022-12-18T07:28:42;7.00;91.30
10384;DHT22;5238;43.508;4.980;2022-12-18T07:31:11;7.00;91.30
10384;DHT22;5238;43.508;4.980;2022-12-18T07:33:39;7.00;91.30
10384;DHT22;5238;43.508;4.980;2022-12-18T07:36:07;7.10;91.30
10384;DHT22;5238;43.508;4.980;2022-12-18T07:38:35;7.10;91.30
10384;DHT22;5238;43.508;4.980;2022-12-18T07:41:06;7.10;91.30
10384;DHT22;5238;43.508;4.980;2022-12-18T07:43:33;7.10;91.30
10384;DHT22;5238;43.508;4.980;2022-12-18T07:46:01;7.20;91.30
10384;DHT22;5238;43.508;4.980;2022-12-18T07:48:28;7.20;91.30
10384;DHT22;5238;43.508;4.980;2022-12-18T07:50:58;7.20;91.30
10384;DHT22;5238;43.508;4.980;2022-12-18T07:53:25;7.20;91.30
10384;DHT22;5238;43.508;4.980;2022-12-18T07:55:55;7.20;91.30
10384;DHT22;5238;43.508;4.980;2022-12-18T07:58:25;7.20;91.30
10384;DHT22;5238;43.508;4.980;2022-12-18T08:00:52;7.30;91.30
10384;DHT22;5238;43.508;4.980;2022-12-18T08:03:19;7.30;91.30
10384;DHT22;5238;43.508;4.980;2022-12-18T08:05:49;7.40;91.30
10384;DHT22;5238;43.508;4.980;2022-12-18T08:08:16;7.50;91.30
10384;DHT22;5238;43.508;4.980;2022-12-18T08:10:44;7.50;91.30
10384;DHT22;5238;43.508;4.980;2022-12-18T08:13:11;7.60;91.30
10384;DHT22;5238;43.508;4.980;2022-12-18T08:15:39;7.70;91.30
10384;DHT22;5238;43.508;4.980;2022-12-18T08:18:06;7.80;91.30
10384;DHT22;5238;43.508;4.980;2022-12-18T08:20:33;7.80;91.30
10384;DHT22;5238;43.508;4.980;2022-12-18T08:23:02;7.90;91.30
10384;DHT22;5238;43.508;4.980;2022-12-18T08:25:31;8.00;91.30
10384;DHT22;5238;43.508;4.980;2022-12-18T08:27:59;8.10;91.30
10384;DHT22;5238;43.508;4.980;2022-12-18T08:30:32;8.30;91.30
10384;DHT22;5238;43.508;4.980;2022-12-18T08:33:00;8.40;91.30
10384;DHT22;5238;43.508;4.980;2022-12-18T08:35:27;8.60;91.30
10384;DHT22;5238;43.508;4.980;2022-12-18T08:37:54;8.80;91.30
10384;DHT22;5238;43.508;4.980;2022-12-18T08:40:21;9.00;91.30
10384;DHT22;5238;43.508;4.980;2022-12-18T08:42:49;9.10;91.30
10384;DHT22;5238;43.508;4.980;2022-12-18T08:45:37;9.30;91.30
10384;DHT22;5238;43.508;4.980;2022-12-18T08:48:05;9.50;91.30
10384;DHT22;5238;43.508;4.980;2022-12-18T08:50:37;9.70;91.30
10384;DHT22;5238;43.508;4.980;2022-12-18T08:53:04;9.90;91.30
10384;DHT22;5238;43.508;4.980;2022-12-18T08:55:31;10.00;91.30
10384;DHT22;5238;43.508;4.980;2022-12-18T08:57:58;10.20;91.30
10384;DHT22;5238;43.508;4.980;2022-12-18T09:00:37;10.40;91.30
10384;DHT22;5238;43.508;4.980;2022-12-18T09:03:11;10.60;91.30
10384;DHT22;5238;43.508;4.980;2022-12-18T09:05:38;10.80;91.30
10384;DHT22;5238;43.508;4.980;2022-12-18T09:08:05;11.00;91.30
10384;DHT22;5238;43.508;4.980;2022-12-18T09:10:33;11.20;91.30
10384;DHT22;5238;43.508;4.980;2022-12-18T09:13:00;11.30;91.30
10384;DHT22;5238;43.508;4.980;2022-12-18T09:15:27;11.50;91.30
10384;DHT22;5238;43.508;4.980;2022-12-18T09:17:54;11.70;91.30
10384;DHT22;5238;43.508;4.980;2022-12-18T09:20:23;11.80;91.30
10384;DHT22;5238;43.508;4.980;2022-12-18T09:22:50;12.00;91.30
10384;DHT22;5238;43.508;4.980;2022-12-18T09:25:17;12.20;91.30
10384;DHT22;5238;43.508;4.980;2022-12-18T09:27:47;12.40;91.30
10384;DHT22;5238;43.508;4.980;2022-12-18T09:30:14;12.50;91.30
10384;DHT22;5238;43.508;4.980;2022-12-18T09:32:41;12.70;91.30
10384;DHT22;5238;43.508;4.980;2022-12-18T09:35:08;12.80;91.30
10384;DHT22;5238;43.508;4.980;2022-12-18T09:37:38;13.00;91.30
10384;DHT22;5238;43.508;4.980;2022-12-18T09:40:19;13.10;91.30
10384;DHT22;5238;43.508;4.980;2022-12-18T09:42:51;13.20;91.30
10384;DHT22;5238;43.508;4.980;2022-12-18T09:45:21;13.20;91.30
10384;DHT22;5238;43.508;4.980;2022-12-18T09:47:50;13.30;91.30
10384;DHT22;5238;43.508;4.980;2022-12-18T09:50:24;13.40;91.30
10384;DHT22;5238;43.508;4.980;2022-12-18T09:53:07;13.50;91.30
10384;DHT22;5238;43.508;4.980;2022-12-18T09:55:41;13.60;91.30
10384;DHT22;5238;43.508;4.980;2022-12-18T09:58:23;13.70;91.30
10384;DHT22;5238;43.508;4.980;2022-12-18T10:00:52;13.70;91.30
10384;DHT22;5238;43.508;4.980;2022-12-18T10:03:19;13.80;91.30
10384;DHT22;5238;43.508;4.980;2022-12-18T10:06:04;13.80;91.30
10384;DHT22;5238;43.508;4.980;2022-12-18T10:08:51;13.90;91.30
10384;DHT22;5238;43.508;4.980;2022-12-18T10:11:51;13.90;91.30
10384;DHT22;5238;43.508;4.980;2022-12-18T10:14:37;13.90;91.30
10384;DHT22;5238;43.508;4.980;2022-12-18T10:17:26;13.90;91.30
10384;DHT22;5238;43.508;4.980;2022-12-18T10:20:24;13.90;91.30
10384;DHT22;5238;43.508;4.980;2022-12-18T10:23:15;14.00;91.30
10384;DHT22;5238;43.508;4.980;2022-12-18T10:25:53;13.90;91.30
10384;DHT22;5238;43.508;4.980;2022-12-18T10:28:29;13.90;91.30
10384;DHT22;5238;43.508;4.980;2022-12-18T10:31:34;13.80;91.30
10384;DHT22;5238;43.508;4.980;2022-12-18T10:34:01;13.80;91.30
10384;DHT22;5238;43.508;4.980;2022-12-18T10:36:35;13.80;91.30
10384;DHT22;5238;43.508;4.980;2022-12-18T10:42:44;13.70;91.30
10384;DHT22;5238;43.508;4.980;2022-12-18T10:46:12;13.70;91.30
10384;DHT22;5238;43.508;4.980;2022-12-18T10:48:57;13.70;91.30
10384;DHT22;5238;43.508;4.980;2022-12-18T10:51:35;13.70;91.30
10384;DHT22;5238;43.508;4.980;2022-12-18T10:54:13;13.80;91.30
10384;DHT22;5238;43.508;4.980;2022-12-18T10:56:45;13.80;91.30
10384;DHT22;5238;43.508;4.980;2022-12-18T10:59:50;13.80;91.30
10384;DHT22;5238;43.508;4.980;2022-12-18T11:02:26;13.80;91.30
10384;DHT22;5238;43.508;4.980;2022-12-18T11:04:56;13.80;91.30
10384;DHT22;5238;43.508;4.980;2022-12-18T11:07:23;13.80;91.30
10384;DHT22;5238;43.508;4.980;2022-12-18T11:10:00;13.80;91.30
10384;DHT22;5238;43.508;4.980;2022-12-18T11:12:28;13.80;91.30
10384;DHT22;5238;43.508;4.980;2022-12-18T11:14:59;13.80;91.30
10384;DHT22;5238;43.508;4.980;2022-12-18T11:17:30;13.70;91.30
10384;DHT22;5238;43.508;4.980;2022-12-18T11:20:00;13.70;91.30
10384;DHT22;5238;43.508;4.980;2022-12-18T11:22:29;13.70;91.30
10384;DHT22;5238;43.508;4.980;2022-12-18T11:24:59;13.70;91.30
10384;DHT22;5238;43.508;4.980;2022-12-18T11:27:28;13.70;91.30
10384;DHT22;5238;43.508;4.980;2022-12-18T11:30:09;13.70;91.30
10384;DHT22;5238;43.508;4.980;2022-12-18T11:32:38;13.70;91.30
10384;DHT22;5238;43.508;4.980;2022-12-18T11:35:15;13.70;91.30
10384;DHT22;5238;43.508;4.980;2022-12-18T11:37:47;13.80;91.30
10384;DHT22;5238;43.508;4.980;2022-12-18T11:40:18;13.80;91.30
10384;DHT22;5238;43.508;4.980;2022-12-18T11:42:51;13.80;91.30
10384;DHT22;5238;43.508;4.980;2022-12-18T11:45:26;13.80;91.30
10384;DHT22;5238;43.508;4.980;2022-12-18T11:47:58;13.80;91.30
10384;DHT22;5238;43.508;4.980;2022-12-18T11:50:33;13.80;91.30
10384;DHT22;5238;43.508;4.980;2022-12-18T11:53:09;13.90;91.30
10384;DHT22;5238;43.508;4.980;2022-12-18T11:55:41;13.80;91.30
10384;DHT22;5238;43.508;4.980;2022-12-18T11:58:17;13.90;91.30
10384;DHT22;5238;43.508;4.980;2022-12-18T12:00:54;13.90;91.30
10384;DHT22;5238;43.508;4.980;2022-12-18T12:03:44;14.00;91.30
10384;DHT22;5238;43.508;4.980;2022-12-18T12:06:24;14.00;91.30
10384;DHT22;5238;43.508;4.980;2022-12-18T12:09:06;14.00;91.30
10384;DHT22;5238;43.508;4.980;2022-12-18T12:11:49;14.10;91.30
10384;DHT22;5238;43.508;4.980;2022-12-18T12:14:30;14.10;91.30
10384;DHT22;5238;43.508;4.980;2022-12-18T12:17:06;14.10;91.30
10384;DHT22;5238;43.508;4.980;2022-12-18T12:19:42;14.20;91.30
10384;DHT22;5238;43.508;4.980;2022-12-18T12:22:24;14.20;91.30
10384;DHT22;5238;43.508;4.980;2022-12-18T12:25:05;14.20;91.30
10384;DHT22;5238;43.508;4.980;2022-12-18T12:27:43;14.30;91.30
10384;DHT22;5238;43.508;4.980;2022-12-18T12:30:19;14.30;91.30
10384;DHT22;5238;43.508;4.980;2022-12-18T12:32:59;14.30;91.30
10384;DHT22;5238;43.508;4.980;2022-12-18T12:35:38;14.30;91.30
10384;DHT22;5238;43.508;4.980;2022-12-18T12:38:19;14.30;91.30
10384;DHT22;5238;43.508;4.980;2022-12-18T12:41:05;14.30;91.30
10384;DHT22;5238;43.508;4.980;2022-12-18T12:44:15;14.30;91.30
10384;DHT22;5238;43.508;4.980;2022-12-18T12:46:42;14.30;91.30
10384;DHT22;5238;43.508;4.980;2022-12-18T12:49:29;14.30;91.30
10384;DHT22;5238;43.508;4.980;2022-12-18T12:52:28;14.40;91.30
10384;DHT22;5238;43.508;4.980;2022-12-18T12:55:07;14.40;91.30
10384;DHT22;5238;43.508;4.980;2022-12-18T12:57:43;14.40;91.30
10384;DHT22;5238;43.508;4.980;2022-12-18T13:00:35;14.40;91.30
10384;DHT22;5238;43.508;4.980;2022-12-18T13:03:48;14.40;91.30
10384;DHT22;5238;43.508;4.980;2022-12-18T13:14:46;14.50;91.30
10384;DHT22;5238;43.508;4.980;2022-12-18T13:17:44;14.50;91.30
10384;DHT22;5238;43.508;4.980;2022-12-18T13:20:17;14.50;91.30
10384;DHT22;5238;43.508;4.980;2022-12-18T13:22:46;14.50;91.30
10384;DHT22;5238;43.508;4.980;2022-12-18T13:28:58;14.50;91.30
10384;DHT22;5238;43.508;4.980;2022-12-18T13:35:39;14.40;91.30
10384;DHT22;5238;43.508;4.980;2022-12-18T13:45:35;14.50;91.30
10384;DHT22;5238;43.508;4.980;2022-12-18T13:48:56;14.50;91.30
10384;DHT22;5238;43.508;4.980;2022-12-18T13:52:16;14.50;91.30
10384;DHT22;5238;43.508;4.980;2022-12-18T13:54:51;14.50;91.30
10384;DHT22;5238;43.508;4.980;2022-12-18T13:57:40;14.50;91.30
10384;DHT22;5238;43.508;4.980;2022-12-18T14:03:28;14.40;91.30
10384;DHT22;5238;43.508;4.980;2022-12-18T14:06:01;14.40;91.30
10384;DHT22;5238;43.508;4.980;2022-12-18T14:08:38;14.40;91.30
10384;DHT22;5238;43.508;4.980;2022-12-18T14:11:06;14.30;91.30
10384;DHT22;5238;43.508;4.980;2022-12-18T14:16:59;14.30;91.30
10384;DHT22;5238;43.508;4.980;2022-12-18T14:20:00;14.30;91.30
10384;DHT22;5238;43.508;4.980;2022-12-18T14:22:59;14.30;91.30
10384;DHT22;5238;43.508;4.980;2022-12-18T14:25:34;14.30;91.30
10384;DHT22;5238;43.508;4.980;2022-12-18T14:32:07;14.40;91.30
10384;DHT22;5238;43.508;4.980;2022-12-18T14:38:26;14.40;91.30
10384;DHT22;5238;43.508;4.980;2022-12-18T14:58:36;14.30;91.30
10384;DHT22;5238;43.508;4.980;2022-12-18T15:19:52;14.30;91.30
10384;DHT22;5238;43.508;4.980;2022-12-18T15:26:16;14.40;91.30
10384;DHT22;5238;43.508;4.980;2022-12-18T15:46:40;14.50;91.30
10384;DHT22;5238;43.508;4.980;2022-12-18T16:00:08;14.40;91.30
10384;DHT22;5238;43.508;4.980;2022-12-18T16:02:57;14.40;91.30
10384;DHT22;5238;43.508;4.980;2022-12-18T16:16:22;14.20;91.30
10384;DHT22;5238;43.508;4.980;2022-12-18T16:19:46;14.20;91.30
10384;DHT22;5238;43.508;4.980;2022-12-18T16:22:20;14.20;91.30
10384;DHT22;5238;43.508;4.980;2022-12-18T16:24:48;14.20;91.30
10384;DHT22;5238;43.508;4.980;2022-12-18T16:27:16;14.10;91.30
10384;DHT22;5238;43.508;4.980;2022-12-18T16:29:57;14.10;91.30
10384;DHT22;5238;43.508;4.980;2022-12-18T16:32:26;14.10;91.30
10384;DHT22;5238;43.508;4.980;2022-12-18T16:34:59;14.10;91.30
10384;DHT22;5238;43.508;4.980;2022-12-18T16:50:44;13.90;91.30
10384;DHT22;5238;43.508;4.980;2022-12-18T16:53:17;13.90;91.30
10384;DHT22;5238;43.508;4.980;2022-12-18T16:55:54;13.80;91.30
10384;DHT22;5238;43.508;4.980;2022-12-18T16:58:23;13.80;91.30
10384;DHT22;5238;43.508;4.980;2022-12-18T17:00:50;13.70;91.30
10384;DHT22;5238;43.508;4.980;2022-12-18T17:03:17;13.70;91.30
10384;DHT22;5238;43.508;4.980;2022-12-18T17:05:46;13.70;91.30
10384;DHT22;5238;43.508;4.980;2022-12-18T17:08:15;13.60;91.30
10384;DHT22;5238;43.508;4.980;2022-12-18T17:10:46;13.60;91.30
10384;DHT22;5238;43.508;4.980;2022-12-18T17:13:14;13.50;91.30
10384;DHT22;5238;43.508;4.980;2022-12-18T17:16:01;13.40;91.30
10384;DHT22;5238;43.508;4.980;2022-12-18T17:18:46;13.40;91.30
10384;DHT22;5238;43.508;4.980;2022-12-18T17:24:43;13.30;91.30
10384;DHT22;5238;43.508;4.980;2022-12-18T17:27:12;13.20;91.30
10384;DHT22;5238;43.508;4.980;2022-12-18T17:29:58;13.20;91.30
10384;DHT22;5238;43.508;4.980;2022-12-18T17:33:02;13.20;91.30
10384;DHT22;5238;43.508;4.980;2022-12-18T17:35:32;13.10;91.30
10384;DHT22;5238;43.508;4.980;2022-12-18T17:38:07;13.10;91.30
10384;DHT22;5238;43.508;4.980;2022-12-18T17:41:05;13.10;91.30
10384;DHT22;5238;43.508;4.980;2022-12-18T17:47:14;13.10;91.30
10384;DHT22;5238;43.508;4.980;2022-12-18T17:56:28;12.90;91.30
10384;DHT22;5238;43.508;4.980;2022-12-18T17:59:21;12.90;91.30
10384;DHT22;5238;43.508;4.980;2022-12-18T18:02:14;12.90;91.30
10384;DHT22;5238;43.508;4.980;2022-12-18T18:04:46;12.90;91.30
10384;DHT22;5238;43.508;4.980;2022-12-18T18:07:46;12.80;91.30
10384;DHT22;5238;43.508;4.980;2022-12-18T18:10:15;12.90;91.30
10384;DHT22;5238;43.508;4.980;2022-12-18T18:12:45;12.80;91.30
10384;DHT22;5238;43.508;4.980;2022-12-18T18:15:59;12.80;91.30
10384;DHT22;5238;43.508;4.980;2022-12-18T18:25:36;12.80;91.30
10384;DHT22;5238;43.508;4.980;2022-12-18T18:28:10;12.90;91.30
10384;DHT22;5238;43.508;4.980;2022-12-18T18:30:57;12.90;91.30
10384;DHT22;5238;43.508;4.980;2022-12-18T18:33:28;12.90;91.30
10384;DHT22;5238;43.508;4.980;2022-12-18T18:42:39;12.90;91.30
10384;DHT22;5238;43.508;4.980;2022-12-18T18:48:33;12.90;91.30
10384;DHT22;5238;43.508;4.980;2022-12-18T18:51:17;12.90;91.30
10384;DHT22;5238;43.508;4.980;2022-12-18T18:57:11;12.90;91.30
10384;DHT22;5238;43.508;4.980;2022-12-18T18:59:48;12.90;91.30
10384;DHT22;5238;43.508;4.980;2022-12-18T19:02:18;12.90;91.30
10384;DHT22;5238;43.508;4.980;2022-12-18T19:12:10;13.00;91.30
10384;DHT22;5238;43.508;4.980;2022-12-18T19:14:55;13.00;91.30
10384;DHT22;5238;43.508;4.980;2022-12-18T19:17:24;13.00;91.30
10384;DHT22;5238;43.508;4.980;2022-12-18T19:21:15;13.00;91.30
10384;DHT22;5238;43.508;4.980;2022-12-18T19:24:13;13.00;91.30
10384;DHT22;5238;43.508;4.980;2022-12-18T19:26:49;13.00;91.30
10384;DHT22;5238;43.508;4.980;2022-12-18T19:30:03;13.00;91.30
10384;DHT22;5238;43.508;4.980;2022-12-18T19:32:32;13.10;91.30